sensor_id;sensor_type;location;lat;lon;timestamp;pressure;altitude;pressure_sealevel;temperature;humidity
66887;BME280;67239;51.680;5.976;2023-02-19T00:01:45;101639.78;;;10.24;100.00
66887;BME280;67239;51.680;5.976;2023-02-19T00:04:18;101646.88;;;10.21;99.87
66887;BME280;67239;51.680;5.976;2023-02-19T00:06:50;101640.78;;;10.17;100.00
66887;BME280;67239;51.680;5.976;2023-02-19T00:09:18;101637.25;;;10.18;100.00
66887;BME280;67239;51.680;5.976;2023-02-19T00:11:46;101630.25;;;10.17;100.00
66887;BME280;67239;51.680;5.976;2023-02-19T00:14:16;101631.09;;;10.18;100.00
66887;BME280;67239;51.680;5.976;2023-02-19T00:16:46;101637.28;;;10.17;100.00
66887;BME280;67239;51.680;5.976;2023-02-19T00:19:17;101627.63;;;10.17;100.00
66887;BME280;67239;51.680;5.976;2023-02-19T00:21:47;101633.72;;;10.18;100.00
66887;BME280;67239;51.680;5.976;2023-02-19T00:24:17;101623.22;;;10.16;100.00
66887;BME280;67239;51.680;5.976;2023-02-19T00:26:44;101632.03;;;10.17;100.00
66887;BME280;67239;51.680;5.976;2023-02-19T00:29:15;101630.25;;;10.17;99.75
66887;BME280;67239;51.680;5.976;2023-02-19T00:31:45;101633.72;;;10.18;98.75
66887;BME280;67239;51.680;5.976;2023-02-19T00:34:13;101643.53;;;10.11;98.14
66887;BME280;67239;51.680;5.976;2023-02-19T00:36:40;101649.72;;;10.07;97.91
66887;BME280;67239;51.680;5.976;2023-02-19T00:39:12;101641.03;;;10.00;98.22
66887;BME280;67239;51.680;5.976;2023-02-19T00:41:42;101651.66;;;9.95;97.86
66887;BME280;67239;51.680;5.976;2023-02-19T00:44:10;101646.44;;;9.91;98.03
66887;BME280;67239;51.680;5.976;2023-02-19T00:46:46;101643.88;;;9.86;98.23
66887;BME280;67239;51.680;5.976;2023-02-19T00:49:19;101651.88;;;9.78;98.79
66887;BME280;67239;51.680;5.976;2023-02-19T00:51:50;101651.94;;;9.74;99.09
66887;BME280;67239;51.680;5.976;2023-02-19T00:54:18;101658.16;;;9.68;99.17
66887;BME280;67239;51.680;5.976;2023-02-19T00:56:48;101657.34;;;9.64;99.56
66887;BME280;67239;51.680;5.976;2023-02-19T00:59:16;101653.84;;;9.62;99.71
66887;BME280;67239;51.680;5.976;2023-02-19T01:01:43;101653.88;;;9.61;99.65
66887;BME280;67239;51.680;5.976;2023-02-19T01:04:11;101657.41;;;9.60;99.67
66887;BME280;67239;51.680;5.976;2023-02-19T01:06:39;101665.31;;;9.60;99.90
66887;BME280;67239;51.680;5.976;2023-02-19T01:09:07;101660.06;;;9.58;99.84
66887;BME280;67239;51.680;5.976;2023-02-19T01:11:34;101644.31;;;9.55;99.82
66887;BME280;67239;51.680;5.976;2023-02-19T01:14:02;101656.56;;;9.58;99.61
66887;BME280;67239;51.680;5.976;2023-02-19T01:16:29;101654.81;;;9.57;99.19
66887;BME280;67239;51.680;5.976;2023-02-19T01:18:57;101646.09;;;9.55;99.18
66887;BME280;67239;51.680;5.976;2023-02-19T01:21:26;101662.75;;;9.54;99.11
66887;BME280;67239;51.680;5.976;2023-02-19T01:23:56;101660.13;;;9.54;99.06
66887;BME280;67239;51.680;5.976;2023-02-19T01:26:28;101651.34;;;9.55;98.88
66887;BME280;67239;51.680;5.976;2023-02-19T01:29:00;101653.09;;;9.54;98.77
66887;BME280;67239;51.680;5.976;2023-02-19T01:31:28;101660.09;;;9.55;98.67
66887;BME280;67239;51.680;5.976;2023-02-19T01:33:58;101655.72;;;9.54;98.60
66887;BME280;67239;51.680;5.976;2023-02-19T01:36:27;101663.63;;;9.54;98.03
66887;BME280;67239;51.680;5.976;2023-02-19T01:38:59;101663.63;;;9.54;97.93
66887;BME280;67239;51.680;5.976;2023-02-19T01:41:31;101667.13;;;9.55;98.07
66887;BME280;67239;51.680;5.976;2023-02-19T01:46:39;101675.00;;;9.56;97.97
66887;BME280;67239;51.680;5.976;2023-02-19T01:52:29;101671.53;;;9.56;97.56
66887;BME280;67239;51.680;5.976;2023-02-19T01:55:01;101682.91;;;9.56;96.90
66887;BME280;67239;51.680;5.976;2023-02-19T01:57:35;101673.22;;;9.58;96.45
66887;BME280;67239;51.680;5.976;2023-02-19T02:00:11;101681.09;;;9.60;96.22
66887;BME280;67239;51.680;5.976;2023-02-19T02:02:42;101667.06;;;9.59;96.15
66887;BME280;67239;51.680;5.976;2023-02-19T02:05:24;101673.19;;;9.60;95.61
66887;BME280;67239;51.680;5.976;2023-02-19T02:08:02;101661.75;;;9.62;95.44
66887;BME280;67239;51.680;5.976;2023-02-19T02:10:49;101671.47;;;9.60;95.23
66887;BME280;67239;51.680;5.976;2023-02-19T02:13:18;101678.47;;;9.60;95.62
66887;BME280;67239;51.680;5.976;2023-02-19T02:22:00;101673.19;;;9.60;95.13
66887;BME280;67239;51.680;5.976;2023-02-19T02:24:56;101671.50;;;9.57;95.27
66887;BME280;67239;51.680;5.976;2023-02-19T02:27:42;101671.50;;;9.57;94.87
66887;BME280;67239;51.680;5.976;2023-02-19T02:30:30;101678.50;;;9.57;95.10
66887;BME280;67239;51.680;5.976;2023-02-19T02:35:58;101675.00;;;9.56;94.75
66887;BME280;67239;51.680;5.976;2023-02-19T02:38:34;101680.31;;;9.53;94.92
66887;BME280;67239;51.680;5.976;2023-02-19T02:41:04;101671.59;;;9.46;95.43
66887;BME280;67239;51.680;5.976;2023-02-19T02:43:33;101676.09;;;9.40;95.58
66887;BME280;67239;51.680;5.976;2023-02-19T02:46:00;101679.69;;;9.34;96.19
66887;BME280;67239;51.680;5.976;2023-02-19T02:48:44;101677.94;;;9.30;96.22
66887;BME280;67239;51.680;5.976;2023-02-19T02:51:20;101677.13;;;9.26;96.87
66887;BME280;67239;51.680;5.976;2023-02-19T02:54:07;101679.78;;;9.23;96.83
66887;BME280;67239;51.680;5.976;2023-02-19T02:56:58;101680.66;;;9.24;96.96
66887;BME280;67239;51.680;5.976;2023-02-19T02:59:33;101688.56;;;9.24;96.86
66887;BME280;67239;51.680;5.976;2023-02-19T03:07:57;101693.03;;;9.14;97.32
66887;BME280;67239;51.680;5.976;2023-02-19T03:10:50;101697.44;;;9.12;97.54
66887;BME280;67239;51.680;5.976;2023-02-19T03:13:50;101700.13;;;9.09;97.70
66887;BME280;67239;51.680;5.976;2023-02-19T03:16:42;101699.28;;;9.05;98.12
66887;BME280;67239;51.680;5.976;2023-02-19T03:19:34;101708.94;;;9.03;98.44
66887;BME280;67239;51.680;5.976;2023-02-19T03:22:16;101708.06;;;9.02;98.54
66887;BME280;67239;51.680;5.976;2023-02-19T03:24:54;101715.06;;;9.05;98.37
66887;BME280;67239;51.680;5.976;2023-02-19T03:27:46;101720.34;;;9.02;98.54
66887;BME280;67239;51.680;5.976;2023-02-19T03:30:19;101718.59;;;9.01;98.61
66887;BME280;67239;51.680;5.976;2023-02-19T03:33:25;101731.75;;;9.01;98.83
66887;BME280;67239;51.680;5.976;2023-02-19T03:36:00;101724.78;;;8.98;98.78
66887;BME280;67239;51.680;5.976;2023-02-19T03:38:37;101721.28;;;8.96;99.21
66887;BME280;67239;51.680;5.976;2023-02-19T03:44:09;101722.19;;;8.92;99.36
66887;BME280;67239;51.680;5.976;2023-02-19T03:50:07;101730.09;;;8.91;99.78
66887;BME280;67239;51.680;5.976;2023-02-19T03:58:52;101749.41;;;8.88;99.47
66887;BME280;67239;51.680;5.976;2023-02-19T04:01:29;101747.63;;;8.89;99.11
66887;BME280;67239;51.680;5.976;2023-02-19T04:06:47;101748.53;;;8.89;99.00
66887;BME280;67239;51.680;5.976;2023-02-19T04:09:20;101746.72;;;8.91;98.62
66887;BME280;67239;51.680;5.976;2023-02-19T04:11:58;101759.00;;;8.92;98.35
66887;BME280;67239;51.680;5.976;2023-02-19T04:17:18;101766.03;;;8.92;98.00
66887;BME280;67239;51.680;5.976;2023-02-19T04:19:48;101762.53;;;8.93;98.02
66887;BME280;67239;51.680;5.976;2023-02-19T04:22:19;101773.91;;;8.93;98.08
66887;BME280;67239;51.680;5.976;2023-02-19T04:24:50;101775.63;;;8.96;97.91
66887;BME280;67239;51.680;5.976;2023-02-19T04:27:19;101787.03;;;8.96;97.68
66887;BME280;67239;51.680;5.976;2023-02-19T04:29:46;101773.91;;;8.93;98.01
66887;BME280;67239;51.680;5.976;2023-02-19T04:32:13;101780.03;;;8.92;98.28
66887;BME280;67239;51.680;5.976;2023-02-19T04:34:40;101787.09;;;8.87;98.84
66887;BME280;67239;51.680;5.976;2023-02-19T04:37:07;101793.28;;;8.84;99.03
66887;BME280;67239;51.680;5.976;2023-02-19T04:39:34;101786.25;;;8.83;99.31
66887;BME280;67239;51.680;5.976;2023-02-19T04:42:02;101786.28;;;8.80;99.48
66887;BME280;67239;51.680;5.976;2023-02-19T04:44:29;101801.19;;;8.80;99.86
66887;BME280;67239;51.680;5.976;2023-02-19T04:46:56;101802.97;;;8.75;100.00
66887;BME280;67239;51.680;5.976;2023-02-19T04:49:23;101818.78;;;8.73;100.00
66887;BME280;67239;51.680;5.976;2023-02-19T04:51:50;101817.91;;;8.69;100.00
66887;BME280;67239;51.680;5.976;2023-02-19T04:54:17;101817.94;;;8.66;100.00
66887;BME280;67239;51.680;5.976;2023-02-19T04:56:44;101817.94;;;8.63;100.00
66887;BME280;67239;51.680;5.976;2023-02-19T04:59:11;101823.19;;;8.63;100.00
66887;BME280;67239;51.680;5.976;2023-02-19T05:01:38;101824.97;;;8.60;100.00
66887;BME280;67239;51.680;5.976;2023-02-19T05:04:05;101835.50;;;8.60;100.00
66887;BME280;67239;51.680;5.976;2023-02-19T05:06:32;101828.50;;;8.57;100.00
66887;BME280;67239;51.680;5.976;2023-02-19T05:08:59;101836.41;;;8.57;100.00
66887;BME280;67239;51.680;5.976;2023-02-19T05:11:26;101841.69;;;8.52;100.00
66887;BME280;67239;51.680;5.976;2023-02-19T05:13:54;101829.41;;;8.54;100.00
66887;BME280;67239;51.680;5.976;2023-02-19T05:16:21;101848.66;;;8.52;100.00
66887;BME280;67239;51.680;5.976;2023-02-19T05:18:48;101853.06;;;8.51;100.00
66887;BME280;67239;51.680;5.976;2023-02-19T05:21:15;101855.69;;;8.51;100.00
66887;BME280;67239;51.680;5.976;2023-02-19T05:23:43;101850.44;;;8.50;100.00
66887;BME280;67239;51.680;5.976;2023-02-19T05:26:15;101861.84;;;8.50;100.00
66887;BME280;67239;51.680;5.976;2023-02-19T05:28:47;101861.84;;;8.50;100.00
66887;BME280;67239;51.680;5.976;2023-02-19T05:31:17;101861.84;;;8.49;100.00
66887;BME280;67239;51.680;5.976;2023-02-19T05:33:44;101858.31;;;8.47;100.00
66887;BME280;67239;51.680;5.976;2023-02-19T05:36:18;101849.56;;;8.45;100.00
66887;BME280;67239;51.680;5.976;2023-02-19T05:38:47;101860.94;;;8.44;100.00
66887;BME280;67239;51.680;5.976;2023-02-19T05:41:21;101867.09;;;8.41;100.00
66887;BME280;67239;51.680;5.976;2023-02-19T05:43:50;101872.34;;;8.43;100.00
66887;BME280;67239;51.680;5.976;2023-02-19T05:46:19;101870.59;;;8.43;100.00
66887;BME280;67239;51.680;5.976;2023-02-19T05:48:50;101874.06;;;8.45;100.00
66887;BME280;67239;51.680;5.976;2023-02-19T05:51:22;101869.72;;;8.43;100.00
66887;BME280;67239;51.680;5.976;2023-02-19T05:53:50;101875.84;;;8.42;100.00
66887;BME280;67239;51.680;5.976;2023-02-19T05:56:34;101872.34;;;8.39;100.00
66887;BME280;67239;51.680;5.976;2023-02-19T05:59:09;101869.75;;;8.38;100.00
66887;BME280;67239;51.680;5.976;2023-02-19T06:01:42;101872.38;;;8.38;100.00
66887;BME280;67239;51.680;5.976;2023-02-19T06:04:10;101881.16;;;8.35;100.00
66887;BME280;67239;51.680;5.976;2023-02-19T06:06:38;101875.00;;;8.35;100.00
66887;BME280;67239;51.680;5.976;2023-02-19T06:09:07;101880.28;;;8.33;100.00
66887;BME280;67239;51.680;5.976;2023-02-19T06:11:36;101885.50;;;8.35;100.00
66887;BME280;67239;51.680;5.976;2023-02-19T06:14:04;101887.28;;;8.33;100.00
66887;BME280;67239;51.680;5.976;2023-02-19T06:16:31;101891.66;;;8.34;100.00
66887;BME280;67239;51.680;5.976;2023-02-19T06:19:03;101891.66;;;8.35;100.00
66887;BME280;67239;51.680;5.976;2023-02-19T06:21:30;101905.69;;;8.33;100.00
66887;BME280;67239;51.680;5.976;2023-02-19T06:23:57;101902.16;;;8.35;100.00
66887;BME280;67239;51.680;5.976;2023-02-19T06:26:25;101909.16;;;8.35;100.00
66887;BME280;67239;51.680;5.976;2023-02-19T06:28:52;101905.66;;;8.34;100.00
66887;BME280;67239;51.680;5.976;2023-02-19T06:31:21;101908.31;;;8.33;100.00
66887;BME280;67239;51.680;5.976;2023-02-19T06:33:49;101912.69;;;8.34;100.00
66887;BME280;67239;51.680;5.976;2023-02-19T06:36:20;101910.06;;;8.34;100.00
66887;BME280;67239;51.680;5.976;2023-02-19T06:38:48;101917.94;;;8.35;100.00
66887;BME280;67239;51.680;5.976;2023-02-19T06:41:17;101924.06;;;8.34;100.00
66887;BME280;67239;51.680;5.976;2023-02-19T06:43:45;101935.44;;;8.36;100.00
66887;BME280;67239;51.680;5.976;2023-02-19T06:46:12;101942.44;;;8.36;100.00
66887;BME280;67239;51.680;5.976;2023-02-19T06:48:41;101952.06;;;8.37;100.00
66887;BME280;67239;51.680;5.976;2023-02-19T06:51:12;101952.94;;;8.36;100.00
66887;BME280;67239;51.680;5.976;2023-02-19T06:53:41;101949.47;;;8.35;100.00
66887;BME280;67239;51.680;5.976;2023-02-19T06:59:00;101952.94;;;8.36;100.00
66887;BME280;67239;51.680;5.976;2023-02-19T07:01:35;101952.94;;;8.36;100.00
66887;BME280;67239;51.680;5.976;2023-02-19T07:04:03;101955.59;;;8.37;100.00
66887;BME280;67239;51.680;5.976;2023-02-19T07:06:33;101955.59;;;8.37;100.00
66887;BME280;67239;51.680;5.976;2023-02-19T07:09:02;101958.19;;;8.39;100.00
66887;BME280;67239;51.680;5.976;2023-02-19T07:11:32;101966.94;;;8.39;100.00
66887;BME280;67239;51.680;5.976;2023-02-19T07:14:02;101974.84;;;8.41;100.00
66887;BME280;67239;51.680;5.976;2023-02-19T07:16:30;101976.59;;;8.42;100.00
66887;BME280;67239;51.680;5.976;2023-02-19T07:19:00;101967.84;;;8.43;100.00
66887;BME280;67239;51.680;5.976;2023-02-19T07:21:34;101987.97;;;8.44;100.00
66887;BME280;67239;51.680;5.976;2023-02-19T07:24:04;101989.69;;;8.45;100.00
66887;BME280;67239;51.680;5.976;2023-02-19T07:26:31;101989.72;;;8.47;100.00
66887;BME280;67239;51.680;5.976;2023-02-19T07:28:59;101992.34;;;8.50;100.00
66887;BME280;67239;51.680;5.976;2023-02-19T07:31:27;101994.09;;;8.51;100.00
66887;BME280;67239;51.680;5.976;2023-02-19T07:33:54;102001.09;;;8.58;100.00
66887;BME280;67239;51.680;5.976;2023-02-19T07:36:23;102008.94;;;8.66;100.00
66887;BME280;67239;51.680;5.976;2023-02-19T07:38:55;102022.97;;;8.68;100.00
66887;BME280;67239;51.680;5.976;2023-02-19T07:41:23;102012.47;;;8.66;100.00
66887;BME280;67239;51.680;5.976;2023-02-19T07:43:55;102030.00;;;8.67;100.00
66887;BME280;67239;51.680;5.976;2023-02-19T07:46:23;102032.59;;;8.70;100.00
66887;BME280;67239;51.680;5.976;2023-02-19T07:48:50;102035.22;;;8.70;100.00
66887;BME280;67239;51.680;5.976;2023-02-19T07:51:18;102042.22;;;8.72;100.00
66887;BME280;67239;51.680;5.976;2023-02-19T07:53:47;102049.25;;;8.73;100.00
66887;BME280;67239;51.680;5.976;2023-02-19T07:56:18;102051.00;;;8.74;100.00
66887;BME280;67239;51.680;5.976;2023-02-19T07:58:46;102051.88;;;8.76;100.00
66887;BME280;67239;51.680;5.976;2023-02-19T08:01:19;102043.09;;;8.77;100.00
66887;BME280;67239;51.680;5.976;2023-02-19T08:04:06;102046.59;;;8.80;100.00
66887;BME280;67239;51.680;5.976;2023-02-19T08:06:33;102047.44;;;8.81;100.00
66887;BME280;67239;51.680;5.976;2023-02-19T08:09:00;102057.09;;;8.80;100.00
66887;BME280;67239;51.680;5.976;2023-02-19T08:11:27;102074.66;;;8.77;100.00
66887;BME280;67239;51.680;5.976;2023-02-19T08:14:13;102072.91;;;8.68;100.00
66887;BME280;67239;51.680;5.976;2023-02-19T08:16:50;102079.94;;;8.67;100.00
66887;BME280;67239;51.680;5.976;2023-02-19T08:19:18;102088.69;;;8.63;100.00
66887;BME280;67239;51.680;5.976;2023-02-19T08:21:46;102077.31;;;8.61;100.00
66887;BME280;67239;51.680;5.976;2023-02-19T08:24:13;102075.59;;;8.57;100.00
66887;BME280;67239;51.680;5.976;2023-02-19T08:26:40;102082.59;;;8.58;100.00
66887;BME280;67239;51.680;5.976;2023-02-19T08:29:07;102083.47;;;8.59;100.00
66887;BME280;67239;51.680;5.976;2023-02-19T08:31:38;102078.19;;;8.62;100.00
66887;BME280;67239;51.680;5.976;2023-02-19T08:34:08;102083.44;;;8.66;100.00
66887;BME280;67239;51.680;5.976;2023-02-19T08:36:35;102082.53;;;8.81;100.00
66887;BME280;67239;51.680;5.976;2023-02-19T08:39:02;102080.75;;;8.90;100.00
66887;BME280;67239;51.680;5.976;2023-02-19T08:41:29;102072.84;;;8.94;100.00
66887;BME280;67239;51.680;5.976;2023-02-19T08:43:56;102082.47;;;8.97;100.00
66887;BME280;67239;51.680;5.976;2023-02-19T08:46:23;102084.22;;;9.01;100.00
66887;BME280;67239;51.680;5.976;2023-02-19T08:48:50;102094.72;;;9.02;99.98
66887;BME280;67239;51.680;5.976;2023-02-19T08:51:17;102101.72;;;9.00;100.00
66887;BME280;67239;51.680;5.976;2023-02-19T08:53:45;102102.63;;;9.04;100.00
66887;BME280;67239;51.680;5.976;2023-02-19T08:56:14;102107.00;;;9.05;100.00
66887;BME280;67239;51.680;5.976;2023-02-19T08:58:43;102115.75;;;9.09;99.58
66887;BME280;67239;51.680;5.976;2023-02-19T09:01:15;102114.84;;;9.19;99.22
66887;BME280;67239;51.680;5.976;2023-02-19T09:03:44;102120.94;;;9.30;98.18
66887;BME280;67239;51.680;5.976;2023-02-19T09:06:14;102121.78;;;9.34;96.23
66887;BME280;67239;51.680;5.976;2023-02-19T09:08:43;102139.34;;;9.35;96.05
66887;BME280;67239;51.680;5.976;2023-02-19T09:11:10;102117.38;;;9.35;96.55
66887;BME280;67239;51.680;5.976;2023-02-19T09:13:38;102121.78;;;9.39;95.82
66887;BME280;67239;51.680;5.976;2023-02-19T09:16:05;102140.16;;;9.48;96.39
66887;BME280;67239;51.680;5.976;2023-02-19T09:18:33;102132.19;;;9.59;96.85
66887;BME280;67239;51.680;5.976;2023-02-19T09:21:01;102129.56;;;9.60;97.42
66887;BME280;67239;51.680;5.976;2023-02-19T09:23:35;102135.69;;;9.61;97.24
66887;BME280;67239;51.680;5.976;2023-02-19T09:26:06;102123.38;;;9.68;96.65
66887;BME280;67239;51.680;5.976;2023-02-19T09:28:35;102113.69;;;9.68;95.83
66887;BME280;67239;51.680;5.976;2023-02-19T09:31:11;102130.41;;;9.62;95.87
66887;BME280;67239;51.680;5.976;2023-02-19T09:33:44;102140.06;;;9.63;94.84
66887;BME280;67239;51.680;5.976;2023-02-19T09:36:14;102136.59;;;9.55;95.96
66887;BME280;67239;51.680;5.976;2023-02-19T09:38:44;102132.25;;;9.42;96.80
66887;BME280;67239;51.680;5.976;2023-02-19T09:41:21;102145.47;;;9.36;97.70
66887;BME280;67239;51.680;5.976;2023-02-19T09:44:02;102144.56;;;9.40;98.02
66887;BME280;67239;51.680;5.976;2023-02-19T09:46:39;102156.84;;;9.39;98.39
66887;BME280;67239;51.680;5.976;2023-02-19T09:49:27;102154.22;;;9.45;96.90
66887;BME280;67239;51.680;5.976;2023-02-19T09:52:01;102167.31;;;9.52;96.88
66887;BME280;67239;51.680;5.976;2023-02-19T09:54:35;102174.28;;;9.70;97.01
66887;BME280;67239;51.680;5.976;2023-02-19T09:57:04;102191.66;;;9.97;96.42
66887;BME280;67239;51.680;5.976;2023-02-19T09:59:47;102200.41;;;10.02;96.34
66887;BME280;67239;51.680;5.976;2023-02-19T10:02:22;102195.22;;;9.88;96.04
66887;BME280;67239;51.680;5.976;2023-02-19T10:04:51;102198.81;;;9.76;95.33
66887;BME280;67239;51.680;5.976;2023-02-19T10:07:46;102210.22;;;9.74;95.28
66887;BME280;67239;51.680;5.976;2023-02-19T10:10:24;102207.53;;;9.85;94.90
66887;BME280;67239;51.680;5.976;2023-02-19T10:13:09;102220.63;;;10.02;94.42
66887;BME280;67239;51.680;5.976;2023-02-19T10:15:51;102222.34;;;10.03;94.04
66887;BME280;67239;51.680;5.976;2023-02-19T10:18:28;102240.84;;;9.95;94.16
66887;BME280;67239;51.680;5.976;2023-02-19T10:21:03;102245.28;;;9.82;94.20
66887;BME280;67239;51.680;5.976;2023-02-19T10:23:31;102241.84;;;9.75;95.00
66887;BME280;67239;51.680;5.976;2023-02-19T10:25:59;102253.22;;;9.73;95.26
66887;BME280;67239;51.680;5.976;2023-02-19T10:28:32;102260.28;;;9.75;95.40
66887;BME280;67239;51.680;5.976;2023-02-19T10:31:14;102261.09;;;9.88;94.59
66887;BME280;67239;51.680;5.976;2023-02-19T10:33:51;102266.31;;;9.94;95.10
66887;BME280;67239;51.680;5.976;2023-02-19T10:41:50;102267.22;;;9.87;94.21
66887;BME280;67239;51.680;5.976;2023-02-19T10:44:26;102274.31;;;9.76;94.63
66887;BME280;67239;51.680;5.976;2023-02-19T10:46:58;102282.25;;;9.65;94.64
66887;BME280;67239;51.680;5.976;2023-02-19T10:49:36;102290.19;;;9.46;94.95
66887;BME280;67239;51.680;5.976;2023-02-19T10:52:20;102304.25;;;9.30;95.43
66887;BME280;67239;51.680;5.976;2023-02-19T10:55:12;102299.03;;;9.16;96.33
66887;BME280;67239;51.680;5.976;2023-02-19T10:57:43;102306.91;;;9.00;96.50
66887;BME280;67239;51.680;5.976;2023-02-19T11:00:27;102313.94;;;8.84;97.35
66887;BME280;67239;51.680;5.976;2023-02-19T11:03:13;102289.38;;;8.81;98.09
66887;BME280;67239;51.680;5.976;2023-02-19T11:06:02;102285.88;;;8.85;98.09
66887;BME280;67239;51.680;5.976;2023-02-19T11:14:14;102291.13;;;9.11;97.66
66887;BME280;67239;51.680;5.976;2023-02-19T11:16:49;102285.84;;;9.17;98.12
66887;BME280;67239;51.680;5.976;2023-02-19T11:22:37;102277.03;;;9.56;98.14
66887;BME280;67239;51.680;5.976;2023-02-19T11:28:06;102262.00;;;9.78;96.14
66887;BME280;67239;51.680;5.976;2023-02-19T11:30:48;102262.06;;;9.62;95.80
66887;BME280;67239;51.680;5.976;2023-02-19T11:35:43;102255.03;;;9.61;94.92
66887;BME280;67239;51.680;5.976;2023-02-19T11:38:13;102265.56;;;9.60;94.92
66887;BME280;67239;51.680;5.976;2023-02-19T11:46:38;102268.22;;;9.63;93.72
66887;BME280;67239;51.680;5.976;2023-02-19T11:55:17;102284.03;;;9.47;93.43
66887;BME280;67239;51.680;5.976;2023-02-19T11:58:33;102289.31;;;9.41;94.32
66887;BME280;67239;51.680;5.976;2023-02-19T12:07:17;102297.25;;;9.29;92.11
66887;BME280;67239;51.680;5.976;2023-02-19T12:13:10;102291.13;;;9.19;93.02
66887;BME280;67239;51.680;5.976;2023-02-19T12:24:59;102299.88;;;9.33;91.23
66887;BME280;67239;51.680;5.976;2023-02-19T12:30:56;102299.88;;;9.40;93.38
66887;BME280;67239;51.680;5.976;2023-02-19T12:34:01;102288.44;;;9.47;91.99
66887;BME280;67239;51.680;5.976;2023-02-19T12:39:41;102279.66;;;9.53;91.57
66887;BME280;67239;51.680;5.976;2023-02-19T12:45:30;102284.06;;;9.46;92.79
66887;BME280;67239;51.680;5.976;2023-02-19T12:48:07;102284.03;;;9.51;92.47
66887;BME280;67239;51.680;5.976;2023-02-19T12:50:41;102291.00;;;9.66;91.07
66887;BME280;67239;51.680;5.976;2023-02-19T12:56:12;102285.66;;;9.90;90.38
66887;BME280;67239;51.680;5.976;2023-02-19T12:58:59;102289.13;;;9.99;86.27
66887;BME280;67239;51.680;5.976;2023-02-19T13:01:37;102306.72;;;9.95;85.34
66887;BME280;67239;51.680;5.976;2023-02-19T13:07:18;102316.38;;;9.96;84.80
66887;BME280;67239;51.680;5.976;2023-02-19T13:09:53;102312.88;;;9.91;84.77
66887;BME280;67239;51.680;5.976;2023-02-19T13:12:28;102314.66;;;9.86;84.73
66887;BME280;67239;51.680;5.976;2023-02-19T13:15:03;102309.38;;;9.87;84.25
66887;BME280;67239;51.680;5.976;2023-02-19T13:17:44;102318.16;;;9.86;82.08
66887;BME280;67239;51.680;5.976;2023-02-19T13:20:25;102315.53;;;9.82;82.48
66887;BME280;67239;51.680;5.976;2023-02-19T13:23:01;102322.53;;;9.84;84.38
66887;BME280;67239;51.680;5.976;2023-02-19T13:29:21;102327.78;;;9.92;84.37
66887;BME280;67239;51.680;5.976;2023-02-19T13:38:00;102339.28;;;9.64;84.87
66887;BME280;67239;51.680;5.976;2023-02-19T13:40:32;102342.81;;;9.59;85.61
66887;BME280;67239;51.680;5.976;2023-02-19T13:43:05;102352.47;;;9.52;86.55
66887;BME280;67239;51.680;5.976;2023-02-19T13:45:41;102359.53;;;9.45;87.23
66887;BME280;67239;51.680;5.976;2023-02-19T14:14:45;102369.19;;;9.29;87.02
66887;BME280;67239;51.680;5.976;2023-02-19T14:17:46;102377.97;;;9.21;86.94
66887;BME280;67239;51.680;5.976;2023-02-19T14:30:53;102394.59;;;8.98;88.95
66887;BME280;67239;51.680;5.976;2023-02-19T14:33:47;102390.22;;;8.97;88.81
66887;BME280;67239;51.680;5.976;2023-02-19T14:36:30;102395.47;;;8.95;87.88
66887;BME280;67239;51.680;5.976;2023-02-19T14:39:14;102385.84;;;8.99;86.20
66887;BME280;67239;51.680;5.976;2023-02-19T14:42:06;102394.59;;;9.01;85.71
66887;BME280;67239;51.680;5.976;2023-02-19T14:44:47;102382.34;;;9.03;86.77
66887;BME280;67239;51.680;5.976;2023-02-19T14:47:20;102386.72;;;9.09;88.19
66887;BME280;67239;51.680;5.976;2023-02-19T14:49:52;102380.59;;;9.16;89.06
66887;BME280;67239;51.680;5.976;2023-02-19T14:52:30;102380.59;;;9.21;87.61
66887;BME280;67239;51.680;5.976;2023-02-19T14:55:13;102377.94;;;9.25;88.08
66887;BME280;67239;51.680;5.976;2023-02-19T14:57:52;102380.59;;;9.25;86.95
66887;BME280;67239;51.680;5.976;2023-02-19T15:00:48;102358.66;;;9.29;87.21
66887;BME280;67239;51.680;5.976;2023-02-19T15:03:36;102356.03;;;9.25;87.17
66887;BME280;67239;51.680;5.976;2023-02-19T15:06:11;102346.38;;;9.17;86.99
66887;BME280;67239;51.680;5.976;2023-02-19T15:08:48;102342.00;;;9.15;88.27
66887;BME280;67239;51.680;5.976;2023-02-19T15:11:27;102343.75;;;9.14;89.55
66887;BME280;67239;51.680;5.976;2023-02-19T15:14:00;102332.38;;;9.15;89.24
66887;BME280;67239;51.680;5.976;2023-02-19T15:16:31;102326.19;;;9.12;87.70
66887;BME280;67239;51.680;5.976;2023-02-19T15:19:05;102326.22;;;9.10;88.16
66887;BME280;67239;51.680;5.976;2023-02-19T15:21:38;102318.34;;;9.09;88.34
66887;BME280;67239;51.680;5.976;2023-02-19T15:24:13;102318.34;;;9.09;89.55
66887;BME280;67239;51.680;5.976;2023-02-19T15:26:47;102319.19;;;9.09;90.00
66887;BME280;67239;51.680;5.976;2023-02-19T15:29:19;102319.19;;;9.05;87.86
66887;BME280;67239;51.680;5.976;2023-02-19T15:34:30;102336.75;;;8.96;88.72
66887;BME280;67239;51.680;5.976;2023-02-19T15:37:06;102347.25;;;8.93;88.21
66887;BME280;67239;51.680;5.976;2023-02-19T15:39:41;102353.38;;;8.92;88.66
66887;BME280;67239;51.680;5.976;2023-02-19T15:42:38;102349.00;;;8.90;89.59
66887;BME280;67239;51.680;5.976;2023-02-19T15:45:26;102356.88;;;8.86;89.39
66887;BME280;67239;51.680;5.976;2023-02-19T15:48:12;102363.91;;;8.83;89.31
66887;BME280;67239;51.680;5.976;2023-02-19T15:50:47;102364.75;;;8.82;89.86
66887;BME280;67239;51.680;5.976;2023-02-19T15:53:22;102364.78;;;8.80;89.64
66887;BME280;67239;51.680;5.976;2023-02-19T15:58:59;102384.91;;;8.75;89.41
66887;BME280;67239;51.680;5.976;2023-02-19T16:01:39;102381.41;;;8.68;90.27
66887;BME280;67239;51.680;5.976;2023-02-19T16:04:13;102384.91;;;8.66;90.62
66887;BME280;67239;51.680;5.976;2023-02-19T16:06:57;102379.66;;;8.63;91.30
66887;BME280;67239;51.680;5.976;2023-02-19T16:09:35;102377.88;;;8.63;92.08